Unicom:                    122.8

AWOS:                  118.275

Elevation           1458’ MSL

TPA:                   2500’ MSL

06/24:         5003’ L   75’ W

PAPI:       06/Left     24/Left

(Operate lights on unicom freq.)

Traffic Pattern: Left

Beacon: Sunset to Sunrise

Windsock: yes, lighted

Segmented Circle: No

 

Cleveland Center: 126.72/291.65

FSS: Altoona

[Source: ADDS]
METAR
KFKL 110945Z AUTO 22004KT 4SM RA BR FEW009 SCT017 OVC028 13/13 A2948 RMK AO2 P0014 =
KFKL 110835Z 1109/1206 13011KT 6SM -SHRA BKN007 BKN045 FM111100 16011KT P6SM BKN060 FM111400 19011G20KT P6SM SCT060 FM120300 16005KT P6SM OVC025
TAF
KFKL 110835Z 1109/1206 13011KT 6SM -SHRA BKN007 BKN045 FM111100 16011KT P6SM BKN060 FM111400 19011G20KT P6SM SCT060 FM120300 16005KT P6SM OVC025 =
[Source: ADDS]
METAR
KDUJ 110853Z AUTO 14008KT 5SM -RA BR OVC006 13/12 A2950 RMK AO2 SLP981 P0005 60025 T01330117 56028 =
KDUJ 110537Z 1106/1206 13010KT 5SM -SHRA BKN080 TEMPO 1107/1110 BKN008 FM111100 17008KT P6SM BKN060 FM111500 21011G22KT P6SM BKN050 FM120000 24009KT P6SM BKN050
TAF
KDUJ 110537Z 1106/1206 13010KT 5SM -SHRA BKN080 TEMPO 1107/1110 BKN008 FM111100 17008KT P6SM BKN060 FM111500 21011G22KT P6SM BKN050 FM120000 24009KT P6SM BKN050 =

Welcome to Clarion County Airport.

We look forward to serving all of your aviation needs.


Clarion County Airport is a General Aviation, Business Class airport serving the Clarion County Area in Central Western Pennsylvania.  Our 5,003' asphalt runway and gps approaches are capable of serving most of the general aviation fleet in most weather conditions.


If you are planning a fuel stop while flying in Western Pennsylvania, consider paying us a visit. Our prices are some of the lowest in the state Check prices here ----> www.airnav.com/fuel and enter identifier KAXQ or see current prices below. We can have you fueled and taxiing out to the runway in about 10 minutes. Our current hours of operation are Monday- Sunday 8:00AM-4:00PM. Holiday closures are Christmas Day and Thanksgiving. If you require use of the facilities during the holidays or after hours please call ahead and someone will be there to assist you.


- Airport Manager -  


                             CURRENT FUEL PRICES       JET-A w/additive    $3.50               100LL     $4.50 CC  


                              Self Service fueling available 24/7, credit card reader enabled. Center point fueling available upon request.

                                                           For after hours fueling assistance please contact 814-316-5746